sensor_id;sensor_type;location;lat;lon;timestamp;P1;durP1;ratioP1;P2;durP2;ratioP2
36137;SDS011;67787;50.074;21.904;2023-11-21T11:03:34;131.80;;;73.60;;
36137;SDS011;67787;50.074;21.904;2023-11-21T11:06:06;46.40;;;23.50;;
36137;SDS011;67787;50.074;21.904;2023-11-21T11:08:41;30.10;;;13.10;;
36137;SDS011;67787;50.074;21.904;2023-11-21T11:11:09;19.10;;;7.70;;
36137;SDS011;67787;50.074;21.904;2023-11-21T11:13:39;22.00;;;9.40;;
36137;SDS011;67787;50.074;21.904;2023-11-21T11:16:13;26.90;;;13.10;;
36137;SDS011;67787;50.074;21.904;2023-11-21T11:18:45;19.80;;;8.10;;
36137;SDS011;67787;50.074;21.904;2023-11-21T11:33:20;22.60;;;10.30;;
36137;SDS011;67787;50.074;21.904;2023-11-21T11:36:05;19.80;;;7.60;;
36137;SDS011;67787;50.074;21.904;2023-11-21T11:38:39;52.40;;;20.10;;
36137;SDS011;67787;50.074;21.904;2023-11-21T11:41:13;32.30;;;12.80;;
36137;SDS011;67787;50.074;21.904;2023-11-21T11:43:54;62.20;;;33.80;;
36137;SDS011;67787;50.074;21.904;2023-11-21T11:46:44;49.80;;;29.40;;
36137;SDS011;67787;50.074;21.904;2023-11-21T11:49:24;94.60;;;59.40;;
36137;SDS011;67787;50.074;21.904;2023-11-21T11:55:05;49.90;;;21.00;;
36137;SDS011;67787;50.074;21.904;2023-11-21T11:57:34;57.80;;;23.20;;
36137;SDS011;67787;50.074;21.904;2023-11-21T12:00:13;31.30;;;14.40;;
36137;SDS011;67787;50.074;21.904;2023-11-21T12:02:44;37.00;;;19.40;;
36137;SDS011;67787;50.074;21.904;2023-11-21T12:05:18;31.80;;;19.80;;
36137;SDS011;67787;50.074;21.904;2023-11-21T12:07:51;37.00;;;23.30;;
36137;SDS011;67787;50.074;21.904;2023-11-21T12:10:22;34.90;;;20.20;;
36137;SDS011;67787;50.074;21.904;2023-11-21T12:15:24;58.80;;;28.60;;
36137;SDS011;67787;50.074;21.904;2023-11-21T12:17:53;40.20;;;22.40;;
36137;SDS011;67787;50.074;21.904;2023-11-21T12:20:22;30.50;;;19.40;;
36137;SDS011;67787;50.074;21.904;2023-11-21T12:22:55;39.20;;;25.90;;
36137;SDS011;67787;50.074;21.904;2023-11-21T12:25:28;44.60;;;30.00;;
36137;SDS011;67787;50.074;21.904;2023-11-21T12:27:57;42.40;;;20.50;;
36137;SDS011;67787;50.074;21.904;2023-11-21T12:30:27;51.60;;;28.00;;
36137;SDS011;67787;50.074;21.904;2023-11-21T12:32:59;182.80;;;99.80;;
36137;SDS011;67787;50.074;21.904;2023-11-21T12:35:29;75.00;;;36.60;;
36137;SDS011;67787;50.074;21.904;2023-11-21T12:38:02;126.20;;;37.30;;
36137;SDS011;67787;50.074;21.904;2023-11-21T12:40:32;62.40;;;22.70;;
36137;SDS011;67787;50.074;21.904;2023-11-21T12:43:00;67.00;;;30.40;;
36137;SDS011;67787;50.074;21.904;2023-11-21T12:45:32;64.50;;;28.10;;
36137;SDS011;67787;50.074;21.904;2023-11-21T12:48:04;78.80;;;43.90;;
36137;SDS011;67787;50.074;21.904;2023-11-21T12:50:39;66.40;;;41.00;;
36137;SDS011;67787;50.074;21.904;2023-11-21T12:53:09;71.10;;;34.10;;
36137;SDS011;67787;50.074;21.904;2023-11-21T12:55:41;85.90;;;42.50;;
36137;SDS011;67787;50.074;21.904;2023-11-21T12:58:11;69.10;;;32.10;;
36137;SDS011;67787;50.074;21.904;2023-11-21T13:00:49;120.10;;;43.50;;
36137;SDS011;67787;50.074;21.904;2023-11-21T13:03:19;77.90;;;27.30;;
36137;SDS011;67787;50.074;21.904;2023-11-21T13:05:51;59.90;;;27.40;;
36137;SDS011;67787;50.074;21.904;2023-11-21T13:08:22;165.30;;;92.60;;
36137;SDS011;67787;50.074;21.904;2023-11-21T13:10:52;103.80;;;49.00;;
36137;SDS011;67787;50.074;21.904;2023-11-21T13:13:26;58.40;;;22.00;;
36137;SDS011;67787;50.074;21.904;2023-11-21T13:16:00;83.00;;;43.60;;
36137;SDS011;67787;50.074;21.904;2023-11-21T13:18:32;62.90;;;26.80;;
36137;SDS011;67787;50.074;21.904;2023-11-21T13:21:04;77.00;;;33.40;;
36137;SDS011;67787;50.074;21.904;2023-11-21T13:23:43;54.60;;;20.40;;
36137;SDS011;67787;50.074;21.904;2023-11-21T13:26:13;74.00;;;36.00;;
36137;SDS011;67787;50.074;21.904;2023-11-21T13:28:43;57.80;;;22.70;;
36137;SDS011;67787;50.074;21.904;2023-11-21T13:31:15;55.60;;;23.00;;
36137;SDS011;67787;50.074;21.904;2023-11-21T13:33:50;54.20;;;25.80;;
36137;SDS011;67787;50.074;21.904;2023-11-21T13:36:24;67.70;;;36.70;;
36137;SDS011;67787;50.074;21.904;2023-11-21T13:38:53;53.00;;;23.80;;
36137;SDS011;67787;50.074;21.904;2023-11-21T13:41:21;42.30;;;17.80;;
36137;SDS011;67787;50.074;21.904;2023-11-21T13:43:59;51.20;;;17.90;;
36137;SDS011;67787;50.074;21.904;2023-11-21T13:46:45;99.60;;;30.70;;
36137;SDS011;67787;50.074;21.904;2023-11-21T13:49:14;50.20;;;19.70;;
36137;SDS011;67787;50.074;21.904;2023-11-21T13:51:43;57.00;;;23.50;;
36137;SDS011;67787;50.074;21.904;2023-11-21T13:54:18;73.50;;;28.20;;
36137;SDS011;67787;50.074;21.904;2023-11-21T13:56:47;58.90;;;22.00;;
36137;SDS011;67787;50.074;21.904;2023-11-21T13:59:18;45.30;;;21.50;;
36137;SDS011;67787;50.074;21.904;2023-11-21T14:01:49;42.00;;;22.10;;
36137;SDS011;67787;50.074;21.904;2023-11-21T14:04:21;60.50;;;34.60;;
36137;SDS011;67787;50.074;21.904;2023-11-21T14:07:08;80.20;;;34.40;;
36137;SDS011;67787;50.074;21.904;2023-11-21T14:09:55;65.00;;;28.20;;
36137;SDS011;67787;50.074;21.904;2023-11-21T14:12:23;50.00;;;23.10;;
36137;SDS011;67787;50.074;21.904;2023-11-21T14:14:52;51.50;;;25.40;;
36137;SDS011;67787;50.074;21.904;2023-11-21T14:17:20;45.30;;;21.50;;
36137;SDS011;67787;50.074;21.904;2023-11-21T14:19:49;38.60;;;19.40;;
36137;SDS011;67787;50.074;21.904;2023-11-21T14:22:18;35.20;;;18.30;;
36137;SDS011;67787;50.074;21.904;2023-11-21T14:24:46;35.00;;;17.80;;
36137;SDS011;67787;50.074;21.904;2023-11-21T14:27:14;37.90;;;19.20;;
36137;SDS011;67787;50.074;21.904;2023-11-21T14:29:43;37.90;;;19.10;;
36137;SDS011;67787;50.074;21.904;2023-11-21T14:32:12;38.20;;;18.20;;
36137;SDS011;67787;50.074;21.904;2023-11-21T14:34:42;45.30;;;20.80;;
36137;SDS011;67787;50.074;21.904;2023-11-21T14:37:14;48.10;;;23.10;;
36137;SDS011;67787;50.074;21.904;2023-11-21T14:39:42;45.40;;;22.70;;
36137;SDS011;67787;50.074;21.904;2023-11-21T14:42:15;45.50;;;20.30;;
36137;SDS011;67787;50.074;21.904;2023-11-21T14:44:43;47.60;;;21.30;;
36137;SDS011;67787;50.074;21.904;2023-11-21T14:47:11;47.90;;;21.30;;
36137;SDS011;67787;50.074;21.904;2023-11-21T14:49:43;52.90;;;25.00;;
36137;SDS011;67787;50.074;21.904;2023-11-21T14:52:22;45.00;;;22.10;;
36137;SDS011;67787;50.074;21.904;2023-11-21T14:55:03;44.60;;;21.20;;
36137;SDS011;67787;50.074;21.904;2023-11-21T14:57:51;69.10;;;39.60;;
36137;SDS011;67787;50.074;21.904;2023-11-21T15:00:20;57.80;;;30.20;;
36137;SDS011;67787;50.074;21.904;2023-11-21T15:03:05;61.00;;;31.00;;
36137;SDS011;67787;50.074;21.904;2023-11-21T15:05:35;43.70;;;21.80;;
36137;SDS011;67787;50.074;21.904;2023-11-21T15:08:03;42.30;;;21.50;;
36137;SDS011;67787;50.074;21.904;2023-11-21T15:10:48;41.10;;;21.10;;
36137;SDS011;67787;50.074;21.904;2023-11-21T15:13:22;39.80;;;18.90;;
36137;SDS011;67787;50.074;21.904;2023-11-21T15:15:52;38.70;;;18.30;;
36137;SDS011;67787;50.074;21.904;2023-11-21T15:18:22;37.40;;;17.60;;
36137;SDS011;67787;50.074;21.904;2023-11-21T15:20:50;38.00;;;18.30;;
36137;SDS011;67787;50.074;21.904;2023-11-21T15:23:18;36.90;;;17.40;;
36137;SDS011;67787;50.074;21.904;2023-11-21T15:25:47;43.60;;;17.70;;
36137;SDS011;67787;50.074;21.904;2023-11-21T15:28:15;43.20;;;17.90;;
36137;SDS011;67787;50.074;21.904;2023-11-21T15:30:45;43.80;;;18.90;;
36137;SDS011;67787;50.074;21.904;2023-11-21T15:33:17;38.00;;;18.20;;
36137;SDS011;67787;50.074;21.904;2023-11-21T15:35:45;40.40;;;19.30;;
36137;SDS011;67787;50.074;21.904;2023-11-21T15:38:14;48.50;;;22.40;;
36137;SDS011;67787;50.074;21.904;2023-11-21T15:40:42;53.30;;;25.50;;
36137;SDS011;67787;50.074;21.904;2023-11-21T15:43:11;56.90;;;29.10;;
36137;SDS011;67787;50.074;21.904;2023-11-21T15:45:39;51.10;;;26.10;;
36137;SDS011;67787;50.074;21.904;2023-11-21T15:48:08;51.80;;;24.90;;
36137;SDS011;67787;50.074;21.904;2023-11-21T15:50:38;62.60;;;28.50;;
36137;SDS011;67787;50.074;21.904;2023-11-21T15:53:06;50.60;;;23.10;;
36137;SDS011;67787;50.074;21.904;2023-11-21T15:55:34;60.80;;;27.10;;
36137;SDS011;67787;50.074;21.904;2023-11-21T15:58:09;59.00;;;28.50;;
36137;SDS011;67787;50.074;21.904;2023-11-21T16:00:37;67.50;;;28.40;;
36137;SDS011;67787;50.074;21.904;2023-11-21T16:03:08;59.90;;;30.50;;
36137;SDS011;67787;50.074;21.904;2023-11-21T16:05:37;66.60;;;30.10;;
36137;SDS011;67787;50.074;21.904;2023-11-21T16:08:05;58.60;;;25.60;;
36137;SDS011;67787;50.074;21.904;2023-11-21T16:10:33;44.70;;;23.40;;
36137;SDS011;67787;50.074;21.904;2023-11-21T16:13:05;41.00;;;21.10;;
36137;SDS011;67787;50.074;21.904;2023-11-21T16:15:33;37.10;;;20.00;;
36137;SDS011;67787;50.074;21.904;2023-11-21T16:18:01;39.70;;;20.60;;
36137;SDS011;67787;50.074;21.904;2023-11-21T16:20:29;39.20;;;20.50;;
36137;SDS011;67787;50.074;21.904;2023-11-21T16:22:57;59.60;;;29.50;;
36137;SDS011;67787;50.074;21.904;2023-11-21T16:25:25;59.50;;;28.20;;
36137;SDS011;67787;50.074;21.904;2023-11-21T16:27:54;57.80;;;32.60;;
36137;SDS011;67787;50.074;21.904;2023-11-21T16:30:24;42.20;;;19.90;;
36137;SDS011;67787;50.074;21.904;2023-11-21T16:32:52;44.70;;;23.10;;
36137;SDS011;67787;50.074;21.904;2023-11-21T16:35:26;45.60;;;23.40;;
36137;SDS011;67787;50.074;21.904;2023-11-21T16:37:53;51.80;;;22.80;;
36137;SDS011;67787;50.074;21.904;2023-11-21T16:40:21;45.90;;;21.30;;
36137;SDS011;67787;50.074;21.904;2023-11-21T16:42:50;59.70;;;27.10;;
36137;SDS011;67787;50.074;21.904;2023-11-21T16:45:18;48.60;;;21.60;;
36137;SDS011;67787;50.074;21.904;2023-11-21T16:48:04;48.80;;;22.50;;
36137;SDS011;67787;50.074;21.904;2023-11-21T16:50:34;50.40;;;21.90;;
36137;SDS011;67787;50.074;21.904;2023-11-21T16:53:02;48.90;;;21.70;;
36137;SDS011;67787;50.074;21.904;2023-11-21T16:55:30;44.80;;;23.40;;
36137;SDS011;67787;50.074;21.904;2023-11-21T16:57:58;52.20;;;24.80;;
36137;SDS011;67787;50.074;21.904;2023-11-21T17:00:26;49.70;;;22.70;;
36137;SDS011;67787;50.074;21.904;2023-11-21T17:02:56;50.00;;;23.80;;
36137;SDS011;67787;50.074;21.904;2023-11-21T17:05:25;51.20;;;23.50;;
36137;SDS011;67787;50.074;21.904;2023-11-21T17:07:52;57.20;;;25.60;;
36137;SDS011;67787;50.074;21.904;2023-11-21T17:10:21;52.60;;;21.60;;
36137;SDS011;67787;50.074;21.904;2023-11-21T17:12:49;54.90;;;23.80;;
36137;SDS011;67787;50.074;21.904;2023-11-21T17:15:17;58.60;;;24.60;;
36137;SDS011;67787;50.074;21.904;2023-11-21T17:17:46;59.50;;;28.20;;
36137;SDS011;67787;50.074;21.904;2023-11-21T17:20:14;51.20;;;25.90;;
36137;SDS011;67787;50.074;21.904;2023-11-21T17:22:45;45.50;;;25.00;;
36137;SDS011;67787;50.074;21.904;2023-11-21T17:25:15;41.50;;;21.90;;
36137;SDS011;67787;50.074;21.904;2023-11-21T17:27:43;42.50;;;23.90;;
36137;SDS011;67787;50.074;21.904;2023-11-21T17:30:12;40.80;;;21.10;;
36137;SDS011;67787;50.074;21.904;2023-11-21T17:32:40;44.20;;;25.00;;
36137;SDS011;67787;50.074;21.904;2023-11-21T17:35:10;41.70;;;23.30;;
36137;SDS011;67787;50.074;21.904;2023-11-21T17:37:40;51.80;;;30.20;;
36137;SDS011;67787;50.074;21.904;2023-11-21T17:40:08;52.70;;;28.30;;
36137;SDS011;67787;50.074;21.904;2023-11-21T17:42:36;56.50;;;28.40;;
36137;SDS011;67787;50.074;21.904;2023-11-21T17:45:05;50.80;;;29.00;;
36137;SDS011;67787;50.074;21.904;2023-11-21T17:47:33;51.50;;;28.80;;
36137;SDS011;67787;50.074;21.904;2023-11-21T17:50:02;58.80;;;28.60;;
36137;SDS011;67787;50.074;21.904;2023-11-21T17:52:30;55.60;;;27.60;;
36137;SDS011;67787;50.074;21.904;2023-11-21T17:54:58;51.80;;;25.60;;
36137;SDS011;67787;50.074;21.904;2023-11-21T17:57:26;53.70;;;25.90;;
36137;SDS011;67787;50.074;21.904;2023-11-21T17:59:54;57.80;;;28.10;;
36137;SDS011;67787;50.074;21.904;2023-11-21T18:02:22;63.20;;;30.00;;
36137;SDS011;67787;50.074;21.904;2023-11-21T18:04:50;64.90;;;29.40;;
36137;SDS011;67787;50.074;21.904;2023-11-21T18:07:18;54.40;;;26.70;;
36137;SDS011;67787;50.074;21.904;2023-11-21T18:09:46;64.80;;;32.20;;
36137;SDS011;67787;50.074;21.904;2023-11-21T18:12:18;57.80;;;28.50;;
36137;SDS011;67787;50.074;21.904;2023-11-21T18:14:49;50.40;;;24.50;;
36137;SDS011;67787;50.074;21.904;2023-11-21T18:17:22;50.90;;;26.00;;
36137;SDS011;67787;50.074;21.904;2023-11-21T18:20:10;54.10;;;30.60;;
36137;SDS011;67787;50.074;21.904;2023-11-21T18:22:38;50.00;;;26.70;;
36137;SDS011;67787;50.074;21.904;2023-11-21T18:25:06;71.40;;;29.90;;
36137;SDS011;67787;50.074;21.904;2023-11-21T18:27:37;68.60;;;27.90;;
36137;SDS011;67787;50.074;21.904;2023-11-21T18:30:05;52.20;;;23.00;;
36137;SDS011;67787;50.074;21.904;2023-11-21T18:32:34;57.70;;;24.90;;
36137;SDS011;67787;50.074;21.904;2023-11-21T18:35:02;58.00;;;24.10;;
36137;SDS011;67787;50.074;21.904;2023-11-21T18:37:30;86.80;;;30.70;;
36137;SDS011;67787;50.074;21.904;2023-11-21T18:39:59;66.10;;;26.90;;
36137;SDS011;67787;50.074;21.904;2023-11-21T18:42:26;65.60;;;27.80;;
36137;SDS011;67787;50.074;21.904;2023-11-21T18:44:57;65.80;;;26.30;;
36137;SDS011;67787;50.074;21.904;2023-11-21T18:47:26;57.60;;;24.30;;
36137;SDS011;67787;50.074;21.904;2023-11-21T18:49:55;62.00;;;28.20;;
36137;SDS011;67787;50.074;21.904;2023-11-21T18:52:25;74.50;;;28.70;;
36137;SDS011;67787;50.074;21.904;2023-11-21T18:54:55;55.00;;;25.70;;
36137;SDS011;67787;50.074;21.904;2023-11-21T18:57:26;52.20;;;24.60;;
36137;SDS011;67787;50.074;21.904;2023-11-21T18:59:55;63.80;;;27.50;;
36137;SDS011;67787;50.074;21.904;2023-11-21T19:02:23;53.30;;;24.10;;
36137;SDS011;67787;50.074;21.904;2023-11-21T19:04:51;54.30;;;25.80;;
36137;SDS011;67787;50.074;21.904;2023-11-21T19:07:19;53.20;;;24.00;;
36137;SDS011;67787;50.074;21.904;2023-11-21T19:09:51;62.20;;;27.10;;
36137;SDS011;67787;50.074;21.904;2023-11-21T19:12:20;67.10;;;26.80;;
36137;SDS011;67787;50.074;21.904;2023-11-21T19:14:48;61.10;;;26.00;;
36137;SDS011;67787;50.074;21.904;2023-11-21T19:17:19;68.20;;;26.70;;
36137;SDS011;67787;50.074;21.904;2023-11-21T19:19:48;62.60;;;25.00;;
36137;SDS011;67787;50.074;21.904;2023-11-21T19:22:16;61.70;;;24.00;;
36137;SDS011;67787;50.074;21.904;2023-11-21T19:24:44;59.00;;;27.10;;
36137;SDS011;67787;50.074;21.904;2023-11-21T19:27:15;52.60;;;23.10;;
36137;SDS011;67787;50.074;21.904;2023-11-21T19:29:43;61.30;;;25.40;;
36137;SDS011;67787;50.074;21.904;2023-11-21T19:32:11;55.80;;;22.50;;
36137;SDS011;67787;50.074;21.904;2023-11-21T19:34:39;54.10;;;24.00;;
36137;SDS011;67787;50.074;21.904;2023-11-21T19:37:07;48.40;;;22.00;;
36137;SDS011;67787;50.074;21.904;2023-11-21T19:39:35;54.90;;;22.90;;
36137;SDS011;67787;50.074;21.904;2023-11-21T19:42:03;52.10;;;21.90;;
36137;SDS011;67787;50.074;21.904;2023-11-21T19:44:31;65.20;;;22.80;;
36137;SDS011;67787;50.074;21.904;2023-11-21T19:47:00;58.60;;;24.60;;
36137;SDS011;67787;50.074;21.904;2023-11-21T19:49:27;53.70;;;22.90;;
36137;SDS011;67787;50.074;21.904;2023-11-21T19:51:55;53.70;;;24.70;;
36137;SDS011;67787;50.074;21.904;2023-11-21T19:54:23;46.10;;;21.90;;
36137;SDS011;67787;50.074;21.904;2023-11-21T19:56:52;45.80;;;21.40;;
36137;SDS011;67787;50.074;21.904;2023-11-21T19:59:20;46.80;;;23.40;;
36137;SDS011;67787;50.074;21.904;2023-11-21T20:01:50;44.30;;;23.40;;
36137;SDS011;67787;50.074;21.904;2023-11-21T20:04:19;46.60;;;21.30;;
36137;SDS011;67787;50.074;21.904;2023-11-21T20:06:48;75.60;;;31.20;;
36137;SDS011;67787;50.074;21.904;2023-11-21T20:09:26;47.00;;;22.10;;
36137;SDS011;67787;50.074;21.904;2023-11-21T20:11:53;46.90;;;21.60;;
36137;SDS011;67787;50.074;21.904;2023-11-21T20:14:22;53.00;;;25.20;;
36137;SDS011;67787;50.074;21.904;2023-11-21T20:16:51;41.50;;;20.00;;
36137;SDS011;67787;50.074;21.904;2023-11-21T20:19:20;46.90;;;21.90;;
36137;SDS011;67787;50.074;21.904;2023-11-21T20:21:51;42.90;;;19.80;;
36137;SDS011;67787;50.074;21.904;2023-11-21T20:24:21;38.90;;;18.90;;
36137;SDS011;67787;50.074;21.904;2023-11-21T20:26:51;47.40;;;19.90;;
36137;SDS011;67787;50.074;21.904;2023-11-21T20:29:19;40.00;;;19.00;;
36137;SDS011;67787;50.074;21.904;2023-11-21T20:31:48;40.90;;;21.60;;
36137;SDS011;67787;50.074;21.904;2023-11-21T20:34:20;41.80;;;20.50;;
36137;SDS011;67787;50.074;21.904;2023-11-21T20:36:48;38.40;;;20.10;;
36137;SDS011;67787;50.074;21.904;2023-11-21T20:39:21;38.90;;;17.90;;
36137;SDS011;67787;50.074;21.904;2023-11-21T20:41:49;39.00;;;17.00;;
36137;SDS011;67787;50.074;21.904;2023-11-21T20:44:17;38.90;;;19.90;;
36137;SDS011;67787;50.074;21.904;2023-11-21T20:46:45;39.80;;;18.80;;
36137;SDS011;67787;50.074;21.904;2023-11-21T20:49:17;34.90;;;17.20;;
36137;SDS011;67787;50.074;21.904;2023-11-21T20:51:47;35.00;;;17.10;;
36137;SDS011;67787;50.074;21.904;2023-11-21T20:54:15;32.90;;;15.50;;
36137;SDS011;67787;50.074;21.904;2023-11-21T20:56:43;35.10;;;15.80;;
36137;SDS011;67787;50.074;21.904;2023-11-21T20:59:11;36.60;;;15.50;;
36137;SDS011;67787;50.074;21.904;2023-11-21T21:01:39;39.50;;;19.00;;
36137;SDS011;67787;50.074;21.904;2023-11-21T21:04:08;32.10;;;15.20;;
36137;SDS011;67787;50.074;21.904;2023-11-21T21:06:39;34.00;;;16.30;;
36137;SDS011;67787;50.074;21.904;2023-11-21T21:09:07;40.70;;;18.80;;
36137;SDS011;67787;50.074;21.904;2023-11-21T21:11:38;33.30;;;16.40;;
36137;SDS011;67787;50.074;21.904;2023-11-21T21:14:06;37.50;;;19.40;;
36137;SDS011;67787;50.074;21.904;2023-11-21T21:16:38;38.20;;;19.40;;
36137;SDS011;67787;50.074;21.904;2023-11-21T21:19:09;37.90;;;19.00;;
36137;SDS011;67787;50.074;21.904;2023-11-21T21:21:38;43.80;;;20.50;;
36137;SDS011;67787;50.074;21.904;2023-11-21T21:24:06;36.40;;;16.70;;
36137;SDS011;67787;50.074;21.904;2023-11-21T21:26:34;40.40;;;20.30;;
36137;SDS011;67787;50.074;21.904;2023-11-21T21:29:02;40.70;;;18.70;;
36137;SDS011;67787;50.074;21.904;2023-11-21T21:31:30;41.70;;;19.80;;
36137;SDS011;67787;50.074;21.904;2023-11-21T21:33:59;38.60;;;18.20;;
36137;SDS011;67787;50.074;21.904;2023-11-21T21:36:27;37.30;;;18.10;;
36137;SDS011;67787;50.074;21.904;2023-11-21T21:38:55;37.30;;;18.10;;
36137;SDS011;67787;50.074;21.904;2023-11-21T21:41:23;45.60;;;19.80;;
36137;SDS011;67787;50.074;21.904;2023-11-21T21:43:52;34.40;;;15.90;;
36137;SDS011;67787;50.074;21.904;2023-11-21T21:46:20;37.70;;;16.90;;
36137;SDS011;67787;50.074;21.904;2023-11-21T21:48:48;39.20;;;19.30;;
36137;SDS011;67787;50.074;21.904;2023-11-21T21:51:17;35.60;;;18.80;;
36137;SDS011;67787;50.074;21.904;2023-11-21T21:53:45;36.00;;;16.80;;
36137;SDS011;67787;50.074;21.904;2023-11-21T21:56:18;31.90;;;15.60;;
36137;SDS011;67787;50.074;21.904;2023-11-21T21:58:46;32.50;;;16.10;;
36137;SDS011;67787;50.074;21.904;2023-11-21T22:01:17;27.40;;;12.90;;
36137;SDS011;67787;50.074;21.904;2023-11-21T22:03:45;29.50;;;15.10;;
36137;SDS011;67787;50.074;21.904;2023-11-21T22:06:13;27.90;;;13.30;;
36137;SDS011;67787;50.074;21.904;2023-11-21T22:08:41;25.30;;;11.60;;
36137;SDS011;67787;50.074;21.904;2023-11-21T22:11:10;25.10;;;12.50;;
36137;SDS011;67787;50.074;21.904;2023-11-21T22:13:37;26.50;;;12.10;;
36137;SDS011;67787;50.074;21.904;2023-11-21T22:16:05;25.80;;;12.90;;
36137;SDS011;67787;50.074;21.904;2023-11-21T22:18:34;23.00;;;11.40;;
36137;SDS011;67787;50.074;21.904;2023-11-21T22:21:04;23.60;;;11.10;;
36137;SDS011;67787;50.074;21.904;2023-11-21T22:23:33;21.50;;;9.20;;
36137;SDS011;67787;50.074;21.904;2023-11-21T22:26:01;23.00;;;10.30;;
36137;SDS011;67787;50.074;21.904;2023-11-21T22:28:29;22.80;;;10.90;;
36137;SDS011;67787;50.074;21.904;2023-11-21T22:30:58;23.60;;;9.90;;
36137;SDS011;67787;50.074;21.904;2023-11-21T22:33:27;19.80;;;9.10;;
36137;SDS011;67787;50.074;21.904;2023-11-21T22:35:55;20.00;;;8.60;;
36137;SDS011;67787;50.074;21.904;2023-11-21T22:38:23;19.10;;;9.10;;
36137;SDS011;67787;50.074;21.904;2023-11-21T22:40:51;19.60;;;8.50;;
36137;SDS011;67787;50.074;21.904;2023-11-21T22:43:20;20.40;;;8.20;;
36137;SDS011;67787;50.074;21.904;2023-11-21T22:45:47;23.80;;;9.40;;
36137;SDS011;67787;50.074;21.904;2023-11-21T22:48:20;24.80;;;10.70;;
36137;SDS011;67787;50.074;21.904;2023-11-21T22:50:48;20.80;;;9.10;;
36137;SDS011;67787;50.074;21.904;2023-11-21T22:53:16;21.10;;;9.10;;
36137;SDS011;67787;50.074;21.904;2023-11-21T22:55:44;20.20;;;9.50;;
36137;SDS011;67787;50.074;21.904;2023-11-21T22:58:11;19.00;;;8.80;;
36137;SDS011;67787;50.074;21.904;2023-11-21T23:00:39;21.00;;;9.20;;
36137;SDS011;67787;50.074;21.904;2023-11-21T23:03:07;21.60;;;9.30;;
36137;SDS011;67787;50.074;21.904;2023-11-21T23:05:36;20.50;;;9.50;;
36137;SDS011;67787;50.074;21.904;2023-11-21T23:08:04;18.90;;;10.20;;
36137;SDS011;67787;50.074;21.904;2023-11-21T23:10:32;20.50;;;9.80;;
36137;SDS011;67787;50.074;21.904;2023-11-21T23:13:00;24.40;;;10.90;;
36137;SDS011;67787;50.074;21.904;2023-11-21T23:15:28;22.70;;;11.30;;
36137;SDS011;67787;50.074;21.904;2023-11-21T23:17:56;19.60;;;9.60;;
36137;SDS011;67787;50.074;21.904;2023-11-21T23:20:24;20.90;;;9.80;;
36137;SDS011;67787;50.074;21.904;2023-11-21T23:22:52;21.10;;;10.20;;
36137;SDS011;67787;50.074;21.904;2023-11-21T23:25:20;22.30;;;10.90;;
36137;SDS011;67787;50.074;21.904;2023-11-21T23:27:50;22.10;;;10.70;;
36137;SDS011;67787;50.074;21.904;2023-11-21T23:30:18;24.50;;;11.30;;
36137;SDS011;67787;50.074;21.904;2023-11-21T23:32:47;24.40;;;11.40;;
36137;SDS011;67787;50.074;21.904;2023-11-21T23:35:15;22.10;;;11.00;;
36137;SDS011;67787;50.074;21.904;2023-11-21T23:37:43;25.70;;;12.20;;
36137;SDS011;67787;50.074;21.904;2023-11-21T23:40:11;24.80;;;11.60;;
36137;SDS011;67787;50.074;21.904;2023-11-21T23:42:39;24.30;;;13.00;;
36137;SDS011;67787;50.074;21.904;2023-11-21T23:45:07;23.90;;;11.90;;
36137;SDS011;67787;50.074;21.904;2023-11-21T23:47:36;24.10;;;11.60;;
36137;SDS011;67787;50.074;21.904;2023-11-21T23:50:04;23.70;;;12.80;;
36137;SDS011;67787;50.074;21.904;2023-11-21T23:52:33;26.30;;;12.10;;
36137;SDS011;67787;50.074;21.904;2023-11-21T23:55:01;25.40;;;12.60;;
36137;SDS011;67787;50.074;21.904;2023-11-21T23:57:30;25.40;;;12.90;;
36137;SDS011;67787;50.074;21.904;2023-11-21T23:59:58;27.00;;;13.40;;
